Time;durP1;ratioP1;P1;durP2;ratioP2;P2;SDS_P1;SDS_P2;PMS_P1;PMS_P2;Temp;Humidity;BMP_temperature;BMP_pressure;BME280_temperature;BME280_humidity;BME280_pressure;Samples;Min_cycle;Max_cycle;Signal;HPM_P1;HPM_P2
2022/04/18 00:01:15;;;;;;;9.30;7.30;;;7.40;96.70;;;;;;5086260;28;20210;-62
2022/04/18 00:03:40;;;;;;;10.47;6.87;;;7.30;97.60;;;;;;5071802;28;20196;-62
2022/04/18 00:06:06;;;;;;;10.67;7.53;;;7.20;98.10;;;;;;5086415;28;20238;-62
2022/04/18 00:08:31;;;;;;;7.80;6.73;;;7.10;99.50;;;;;;5083907;28;20644;-62
2022/04/18 00:10:57;;;;;;;14.80;7.50;;;6.90;99.60;;;;;;5085969;28;20280;-62
2022/04/18 00:13:22;;;;;;;9.40;7.43;;;6.90;99.90;;;;;;5083873;28;20201;-61
2022/04/18 00:15:49;;;;;;;9.13;6.93;;;7.20;99.60;;;;;;5085941;28;20190;-62
2022/04/18 00:18:14;;;;;;;10.00;7.10;;;7.30;99.10;;;;;;5083544;28;20190;-62
2022/04/18 00:20:40;;;;;;;8.63;7.83;;;7.20;99.70;;;;;;5085972;28;20185;-61
2022/04/18 00:23:05;;;;;;;10.23;7.20;;;7.10;99.90;;;;;;5085863;28;20292;-61
2022/04/18 00:25:31;;;;;;;7.93;6.97;;;7.10;99.90;;;;;;5081308;28;20718;-61
2022/04/18 00:27:56;;;;;;;9.07;7.53;;;7.10;99.90;;;;;;5079198;28;20226;-61
2022/04/18 00:30:22;;;;;;;10.50;7.00;;;7.00;99.90;;;;;;5083753;28;20201;-61
2022/04/18 00:32:47;;;;;;;9.43;7.90;;;7.10;99.90;;;;;;5085804;28;20197;-61
2022/04/18 00:35:13;;;;;;;8.83;7.30;;;7.10;99.90;;;;;;5083169;28;20232;-61
2022/04/18 00:37:40;;;;;;;11.90;8.63;;;7.10;99.90;;;;;;5085345;28;20198;-61
2022/04/18 00:40:07;;;;;;;10.40;7.30;;;7.10;99.90;;;;;;5083758;28;20205;-61
2022/04/18 00:42:33;;;;;;;9.40;8.03;;;7.10;99.90;;;;;;5085802;28;20197;-61
2022/04/18 00:44:59;;;;;;;10.13;8.10;;;7.10;99.90;;;;;;5083831;28;20671;-61
2022/04/18 00:47:24;;;;;;;10.00;7.90;;;7.00;99.90;;;;;;5085333;28;20254;-61
2022/04/18 00:49:50;;;;;;;9.93;8.23;;;6.80;99.90;;;;;;5083725;28;20541;-61
2022/04/18 00:52:16;;;;;;;8.77;7.87;;;6.60;99.90;;;;;;5085816;28;20196;-61
2022/04/18 00:54:42;;;;;;;9.60;8.00;;;6.50;99.90;;;;;;5083646;28;20198;-60
2022/04/18 00:57:09;;;;;;;9.17;7.43;;;6.70;99.90;;;;;;5072545;28;20197;-61
2022/04/18 00:59:34;;;;;;;8.90;7.83;;;6.60;99.90;;;;;;5083512;28;20574;-61
2022/04/18 01:02:00;;;;;;;12.57;8.23;;;6.40;99.90;;;;;;5085147;28;20185;-67
2022/04/18 01:04:26;;;;;;;8.63;7.27;;;6.30;99.90;;;;;;5083541;28;20193;-61
2022/04/18 01:06:51;;;;;;;9.03;8.00;;;6.20;99.90;;;;;;5084841;28;20279;-61
2022/04/18 01:09:18;;;;;;;10.33;8.13;;;6.30;99.90;;;;;;5075750;28;20681;-61
2022/04/18 01:11:43;;;;;;;10.23;7.67;;;6.40;99.90;;;;;;5085859;28;20182;-75
2022/04/18 01:14:09;;;;;;;12.53;8.53;;;6.50;99.90;;;;;;5083180;28;20197;-65
2022/04/18 01:16:35;;;;;;;10.80;8.53;;;6.50;99.90;;;;;;5084063;28;20674;-66
2022/04/18 01:19:00;;;;;;;10.50;7.27;;;6.30;99.90;;;;;;5083071;28;20194;-63
2022/04/18 01:21:26;;;;;;;11.57;8.23;;;6.10;99.90;;;;;;5084499;28;20663;-66
2022/04/18 01:23:54;;;;;;;13.30;9.20;;;6.10;99.90;;;;;;5082322;28;20554;-63
2022/04/18 01:29:05;;;;;;;9.67;7.93;;;6.20;99.90;;;;;;5082831;28;20212;-63
2022/04/18 01:31:33;;;;;;;10.20;8.90;;;6.20;99.90;;;;;;5084861;28;20189;-63
2022/04/18 01:33:59;;;;;;;11.37;8.63;;;6.10;99.90;;;;;;5082967;28;20201;-63
2022/04/18 01:36:26;;;;;;;9.20;8.10;;;6.00;99.90;;;;;;5084677;28;20200;-63
2022/04/18 01:38:51;;;;;;;11.63;8.27;;;6.00;99.90;;;;;;5082632;28;20209;-63
2022/04/18 01:41:18;;;;;;;12.37;8.07;;;6.10;99.90;;;;;;5084793;28;20829;-71
2022/04/18 01:43:43;;;;;;;9.40;8.33;;;6.00;99.90;;;;;;5082888;28;20197;-71
2022/04/18 01:46:09;;;;;;;11.20;8.37;;;6.00;99.90;;;;;;5085046;28;20659;-70
2022/04/18 01:48:34;;;;;;;9.70;7.67;;;5.80;99.90;;;;;;5084545;28;20217;-70
2022/04/18 01:51:00;;;;;;;10.23;7.67;;;5.70;99.90;;;;;;5088626;28;20186;-69
2022/04/18 01:53:27;;;;;;;10.17;8.47;;;5.70;99.90;;;;;;5086597;28;20292;-63
2022/04/18 01:55:53;;;;;;;9.67;7.70;;;5.60;99.90;;;;;;5070970;28;20196;-66
2022/04/18 01:58:18;;;;;;;11.23;7.83;;;5.60;99.90;;;;;;5086236;28;20197;-66
2022/04/18 02:00:44;;;;;;;9.27;7.73;;;5.60;99.90;;;;;;5093600;28;20177;-65
2022/04/18 02:03:10;;;;;;;10.03;7.83;;;5.60;99.90;;;;;;5088017;28;20738;-63
2022/04/18 02:05:35;;;;;;;12.07;8.83;;;5.50;99.90;;;;;;5086527;28;20918;-64
2022/04/18 02:08:01;;;;;;;8.43;7.63;;;5.40;99.90;;;;;;5079542;28;20220;-65
2022/04/18 02:10:26;;;;;;;10.50;7.60;;;5.20;99.90;;;;;;5086425;28;20212;-63
2022/04/18 02:12:52;;;;;;;13.47;7.57;;;5.30;99.90;;;;;;5085022;28;20200;-64
2022/04/18 02:15:18;;;;;;;9.60;7.47;;;5.20;99.90;;;;;;5084412;28;20275;-63
2022/04/18 02:17:44;;;;;;;9.00;7.70;;;5.20;99.90;;;;;;5087779;28;20197;-63
2022/04/18 02:20:10;;;;;;;12.53;7.57;;;5.30;99.90;;;;;;5086262;28;20212;-63
2022/04/18 02:22:35;;;;;;;9.70;7.50;;;5.20;99.90;;;;;;5088309;28;20193;-63
2022/04/18 02:25:01;;;;;;;10.87;7.73;;;5.10;99.90;;;;;;5086152;28;20205;-64
2022/04/18 02:27:27;;;;;;;8.57;7.50;;;5.10;99.90;;;;;;5087861;28;20241;-64
2022/04/18 02:29:52;;;;;;;9.43;7.47;;;5.00;99.90;;;;;;5086276;28;20807;-64
2022/04/18 02:35:02;;;;;;;13.90;9.07;;;4.90;99.90;;;;;;5086184;28;20181;-63
2022/04/18 02:37:28;;;;;;;10.73;7.33;;;4.90;99.90;;;;;;5073305;28;20216;-64
2022/04/18 02:39:54;;;;;;;11.43;6.97;;;4.90;99.90;;;;;;5087386;28;20185;-64
2022/04/18 02:42:20;;;;;;;10.47;7.63;;;4.90;99.90;;;;;;5083185;28;20644;-63
2022/04/18 02:44:45;;;;;;;10.33;8.27;;;4.90;99.90;;;;;;5087965;28;20188;-62
2022/04/18 02:47:11;;;;;;;11.50;7.67;;;4.80;99.90;;;;;;5085764;28;20209;-63
2022/04/18 02:49:37;;;;;;;9.90;7.40;;;4.80;99.90;;;;;;5087719;28;20710;-63
2022/04/18 02:52:04;;;;;;;11.57;8.73;;;4.80;99.90;;;;;;5085780;28;20521;-63
2022/04/18 02:54:29;;;;;;;11.83;7.50;;;4.80;99.90;;;;;;5087257;28;20234;-64
2022/04/18 02:56:55;;;;;;;10.40;7.83;;;4.80;99.90;;;;;;5071315;28;20181;-64
2022/04/18 02:59:20;;;;;;;9.53;7.43;;;4.70;99.90;;;;;;5087161;28;20208;-63
2022/04/18 03:01:46;;;;;;;10.10;7.80;;;4.70;99.90;;;;;;5085277;28;20659;-62
2022/04/18 03:04:11;;;;;;;9.27;6.77;;;4.70;99.90;;;;;;5087368;28;20207;-64
2022/04/18 03:06:37;;;;;;;8.60;6.90;;;4.70;99.90;;;;;;5087189;28;20193;-62
2022/04/18 03:09:02;;;;;;;8.10;7.03;;;4.60;99.90;;;;;;5084956;28;20217;-62
2022/04/18 03:11:28;;;;;;;8.33;6.97;;;4.60;99.90;;;;;;5086795;28;20681;-62
2022/04/18 03:13:55;;;;;;;9.57;7.03;;;4.60;99.90;;;;;;5085096;28;20612;-62
2022/04/18 03:16:21;;;;;;;8.27;7.47;;;4.60;99.90;;;;;;5086358;28;20209;-63
2022/04/18 03:18:46;;;;;;;10.87;7.40;;;4.50;99.90;;;;;;5085142;28;20294;-63
2022/04/18 03:21:12;;;;;;;11.33;6.93;;;4.60;99.90;;;;;;5086792;28;20193;-63
2022/04/18 03:23:39;;;;;;;8.53;7.10;;;4.60;99.90;;;;;;5085063;28;20699;-62
2022/04/18 03:26:06;;;;;;;11.77;8.47;;;4.60;99.90;;;;;;5086304;28;20602;-63
2022/04/18 03:28:32;;;;;;;17.70;10.63;;;4.60;99.90;;;;;;5085186;28;20217;-63
2022/04/18 03:30:58;;;;;;;12.13;8.77;;;4.60;99.90;;;;;;5086430;28;20193;-62
2022/04/18 03:33:23;;;;;;;11.90;8.63;;;4.50;99.90;;;;;;5082644;28;20206;-63
2022/04/18 03:41:17;;;;;;;12.03;8.00;;;4.40;99.90;;;;;;5074456;28;20322;-63
2022/04/18 03:43:43;;;;;;;12.10;8.27;;;4.40;99.90;;;;;;5084557;28;20300;-63
2022/04/18 03:46:09;;;;;;;10.67;7.93;;;4.40;99.90;;;;;;5085783;28;20239;-63
2022/04/18 03:48:35;;;;;;;12.63;7.93;;;4.40;99.90;;;;;;5080456;28;20240;-64
2022/04/18 03:51:00;;;;;;;7.77;6.93;;;4.40;99.90;;;;;;5086064;28;20216;-63
2022/04/18 03:53:26;;;;;;;10.17;7.93;;;4.30;99.90;;;;;;5079115;28;20193;-63
2022/04/18 03:55:51;;;;;;;9.20;8.33;;;4.30;99.90;;;;;;5085860;28;20401;-63
2022/04/18 03:58:17;;;;;;;8.80;7.33;;;4.30;99.90;;;;;;5084287;28;20198;-62
2022/04/18 04:00:42;;;;;;;9.97;8.03;;;4.30;99.90;;;;;;5086147;28;20193;-62
2022/04/18 04:03:11;;;;;;;9.10;7.27;;;4.30;99.90;;;;;;5084223;28;20209;-63
2022/04/18 04:05:38;;;;;;;12.43;7.97;;;4.30;99.90;;;;;;5085972;28;20335;-63
2022/04/18 04:08:04;;;;;;;12.07;8.17;;;4.30;99.90;;;;;;5084236;28;20253;-63
2022/04/18 04:10:30;;;;;;;9.93;8.40;;;4.30;99.90;;;;;;5085289;28;20917;-62
2022/04/18 04:12:55;;;;;;;12.37;8.83;;;4.30;99.90;;;;;;5078006;28;20254;-62
2022/04/18 04:15:20;;;;;;;12.70;8.00;;;4.30;99.90;;;;;;5085958;28;20937;-62
2022/04/18 04:17:46;;;;;;;10.10;7.53;;;4.30;99.90;;;;;;5083547;28;20258;-62
2022/04/18 04:20:11;;;;;;;10.80;8.03;;;4.30;99.90;;;;;;5086304;28;20197;-62
2022/04/18 04:22:42;;;;;;;9.63;7.30;;;4.30;99.90;;;;;;5083929;28;20578;-62
2022/04/18 04:25:08;;;;;;;12.37;7.30;;;4.30;99.90;;;;;;5086054;28;20597;-62
2022/04/18 04:27:33;;;;;;;11.57;8.13;;;4.20;99.90;;;;;;5083469;28;20233;-62
2022/04/18 04:29:59;;;;;;;9.13;7.23;;;4.00;99.90;;;;;;5085651;28;20392;-63
2022/04/18 04:32:24;;;;;;;9.40;8.40;;;4.10;99.90;;;;;;5083482;28;20710;-62
2022/04/18 04:34:50;;;;;;;10.60;8.80;;;4.20;99.90;;;;;;5085642;28;20224;-63
2022/04/18 04:37:16;;;;;;;10.97;8.30;;;4.20;99.90;;;;;;5083942;28;20208;-63
2022/04/18 04:39:42;;;;;;;11.77;8.17;;;4.30;99.90;;;;;;5085754;28;20181;-63
2022/04/18 04:42:07;;;;;;;10.67;7.93;;;4.40;99.90;;;;;;5083109;28;20201;-63
2022/04/18 04:44:33;;;;;;;10.27;7.80;;;4.40;99.90;;;;;;5085403;28;20765;-63
2022/04/18 04:46:59;;;;;;;12.33;7.33;;;4.30;99.90;;;;;;5083137;28;20200;-62
2022/04/18 04:49:24;;;;;;;9.37;7.30;;;4.40;99.90;;;;;;5085767;28;20224;-62
2022/04/18 04:51:50;;;;;;;11.53;8.33;;;4.60;99.90;;;;;;5083175;28;20238;-62
2022/04/18 04:54:15;;;;;;;10.33;8.20;;;4.60;99.90;;;;;;5085312;28;20181;-62
2022/04/18 04:56:41;;;;;;;9.53;7.93;;;4.60;99.90;;;;;;5084959;28;20282;-62
2022/04/18 04:59:07;;;;;;;9.97;8.00;;;4.60;99.90;;;;;;5083256;28;20209;-62
2022/04/18 05:01:33;;;;;;;9.10;8.20;;;4.50;99.90;;;;;;5084739;28;20197;-62
2022/04/18 05:03:58;;;;;;;10.10;8.40;;;4.50;99.90;;;;;;5083170;28;20198;-64
2022/04/18 05:06:24;;;;;;;13.70;8.20;;;4.40;99.90;;;;;;5084871;28;20670;-63
2022/04/18 05:08:49;;;;;;;9.63;7.93;;;4.40;99.90;;;;;;5083184;28;20709;-63
2022/04/18 05:11:15;;;;;;;11.83;8.63;;;4.40;99.90;;;;;;5084907;28;20193;-63
2022/04/18 05:13:40;;;;;;;11.20;8.03;;;4.40;99.90;;;;;;5083020;28;20582;-62
2022/04/18 05:16:06;;;;;;;14.10;8.67;;;4.40;99.90;;;;;;5080129;28;20193;-67
2022/04/18 05:18:32;;;;;;;13.50;9.67;;;4.40;99.90;;;;;;5083149;28;20212;-67
2022/04/18 05:20:57;;;;;;;14.07;8.87;;;4.50;99.90;;;;;;5084776;28;20204;-62
2022/04/18 05:23:23;;;;;;;11.53;8.90;;;4.60;99.90;;;;;;5086622;28;20209;-61
2022/04/18 05:25:48;;;;;;;11.03;9.20;;;4.50;99.90;;;;;;5088485;28;20217;-62
2022/04/18 05:28:14;;;;;;;13.03;9.40;;;4.50;99.90;;;;;;5087225;28;20569;-63
2022/04/18 05:30:40;;;;;;;12.43;9.83;;;4.50;99.90;;;;;;5088657;28;20189;-63
2022/04/18 05:33:07;;;;;;;11.07;8.13;;;4.70;99.90;;;;;;5082305;28;20567;-63
2022/04/18 05:35:33;;;;;;;13.33;8.93;;;4.70;99.90;;;;;;5088850;28;20193;-62
2022/04/18 05:37:58;;;;;;;14.93;9.47;;;4.80;99.90;;;;;;5086927;28;20568;-63
2022/04/18 05:40:24;;;;;;;15.50;9.33;;;4.80;99.90;;;;;;5088779;28;20193;-63
2022/04/18 05:42:51;;;;;;;15.20;9.90;;;4.90;99.90;;;;;;5086703;28;20237;-63
2022/04/18 05:45:17;;;;;;;15.07;10.87;;;5.00;99.90;;;;;;5088803;28;20193;-63
2022/04/18 05:47:42;;;;;;;18.33;10.43;;;5.10;99.90;;;;;;5086522;28;20214;-63
2022/04/18 05:50:08;;;;;;;12.63;9.70;;;5.20;99.90;;;;;;5088334;28;20185;-63
2022/04/18 05:52:33;;;;;;;14.87;9.37;;;5.20;99.90;;;;;;5086811;28;20556;-63
2022/04/18 05:54:59;;;;;;;13.87;9.93;;;5.30;99.90;;;;;;5088964;28;20670;-64
2022/04/18 05:57:24;;;;;;;13.90;9.03;;;5.30;99.90;;;;;;5084423;28;20189;-63
2022/04/18 05:59:50;;;;;;;11.63;8.63;;;5.40;99.90;;;;;;5088776;28;20527;-63
2022/04/18 06:02:15;;;;;;;15.47;9.23;;;5.40;99.90;;;;;;5068233;28;20283;-64
2022/04/18 06:04:41;;;;;;;17.40;10.23;;;5.50;99.90;;;;;;5088703;28;20190;-64
2022/04/18 06:07:07;;;;;;;13.90;10.17;;;5.60;99.90;;;;;;5086538;28;20637;-64
2022/04/18 06:09:33;;;;;;;16.70;10.90;;;5.70;99.90;;;;;;5088443;28;20184;-63
2022/04/18 06:11:58;;;;;;;12.10;9.33;;;5.80;99.90;;;;;;5086557;28;20284;-63
2022/04/18 06:14:24;;;;;;;20.13;11.00;;;6.00;99.90;;;;;;5088688;28;20173;-63
2022/04/18 06:16:49;;;;;;;14.23;11.57;;;6.10;99.90;;;;;;5085697;28;20189;-64
2022/04/18 06:19:15;;;;;;;15.93;10.23;;;6.30;99.90;;;;;;5088332;28;20190;-63
2022/04/18 06:21:41;;;;;;;15.83;9.83;;;6.50;99.90;;;;;;5088184;28;20205;-64
2022/04/18 06:24:06;;;;;;;17.47;10.43;;;6.60;99.90;;;;;;5086209;28;20213;-64
2022/04/18 06:26:32;;;;;;;20.77;11.57;;;6.60;99.90;;;;;;5087216;28;20229;-63
2022/04/18 06:28:58;;;;;;;15.43;9.90;;;6.80;99.90;;;;;;5086191;28;20239;-62
2022/04/18 06:31:24;;;;;;;17.17;11.40;;;6.90;99.90;;;;;;5087639;28;20575;-80
2022/04/18 06:33:50;;;;;;;16.77;11.00;;;7.00;99.90;;;;;;5085069;28;20212;-63
2022/04/18 06:36:15;;;;;;;15.67;10.90;;;7.10;99.90;;;;;;5087471;28;20182;-62
2022/04/18 06:38:41;;;;;;;19.23;11.80;;;7.20;99.90;;;;;;5085251;28;20205;-62
2022/04/18 06:41:08;;;;;;;16.90;10.87;;;7.30;99.90;;;;;;5087278;28;20197;-63
2022/04/18 06:43:33;;;;;;;15.03;9.83;;;7.40;99.90;;;;;;5084712;28;20645;-63
2022/04/18 06:45:59;;;;;;;14.20;9.77;;;7.40;99.90;;;;;;5073655;28;20191;-63
2022/04/18 06:48:25;;;;;;;15.70;9.97;;;7.40;99.90;;;;;;5067217;28;20212;-63
2022/04/18 06:50:50;;;;;;;14.07;10.80;;;7.50;99.90;;;;;;5076441;28;20200;-69
2022/04/18 06:53:16;;;;;;;14.60;9.90;;;7.50;99.90;;;;;;5085475;28;20198;-63
2022/04/18 06:58:26;;;;;;;13.90;9.67;;;7.80;99.90;;;;;;5082912;28;20209;-62
2022/04/18 07:00:51;;;;;;;16.00;10.50;;;7.80;99.90;;;;;;5086715;28;20197;-62
2022/04/18 07:03:17;;;;;;;14.77;9.00;;;8.00;99.90;;;;;;5084863;28;20201;-64
2022/04/18 07:05:42;;;;;;;16.00;10.70;;;8.00;99.90;;;;;;5086990;28;20222;-63
2022/04/18 07:08:09;;;;;;;14.47;10.63;;;8.10;99.90;;;;;;5077910;28;20213;-71
2022/04/18 07:10:34;;;;;;;12.37;9.50;;;8.20;99.90;;;;;;5086854;28;20185;-64
2022/04/18 07:13:00;;;;;;;13.63;9.73;;;8.30;99.90;;;;;;5084794;28;20694;-66
2022/04/18 07:15:25;;;;;;;12.73;9.07;;;8.30;99.90;;;;;;5086736;28;20305;-63
2022/04/18 07:17:51;;;;;;;16.07;10.70;;;8.40;99.90;;;;;;5079011;28;20652;-63
2022/04/18 07:20:17;;;;;;;11.83;9.73;;;8.60;99.90;;;;;;5086619;28;20680;-63
2022/04/18 07:22:42;;;;;;;15.33;10.20;;;8.70;99.90;;;;;;5084483;28;20201;-63
2022/04/18 07:25:08;;;;;;;16.37;9.93;;;8.80;99.90;;;;;;5086395;28;20290;-64
2022/04/18 07:27:35;;;;;;;16.33;10.00;;;8.80;99.90;;;;;;5083989;28;20319;-63
2022/04/18 07:30:00;;;;;;;12.80;9.37;;;8.90;99.90;;;;;;5086771;28;20542;-63
2022/04/18 07:32:26;;;;;;;12.90;8.90;;;8.90;99.90;;;;;;5084748;28;20194;-64
2022/04/18 07:34:53;;;;;;;12.83;9.07;;;9.00;99.90;;;;;;5086653;28;20198;-64
2022/04/18 07:37:19;;;;;;;14.37;8.67;;;9.10;99.80;;;;;;5084631;28;20227;-64
2022/04/18 07:39:44;;;;;;;12.43;9.00;;;9.30;98.90;;;;;;5086205;28;20278;-64
2022/04/18 07:42:10;;;;;;;10.50;8.00;;;9.40;99.40;;;;;;5084137;28;20210;-63
2022/04/18 07:44:35;;;;;;;8.83;6.80;;;9.50;98.60;;;;;;5086283;28;20253;-63
2022/04/18 07:47:01;;;;;;;10.67;7.87;;;9.60;98.00;;;;;;5083329;28;20201;-63
2022/04/18 07:49:26;;;;;;;14.03;8.37;;;9.70;97.80;;;;;;5086378;28;20355;-63
2022/04/18 07:51:52;;;;;;;10.53;7.50;;;9.70;97.30;;;;;;5084014;28;20199;-64
2022/04/18 07:54:20;;;;;;;10.17;7.63;;;9.80;97.60;;;;;;5086327;28;20542;-63
2022/04/18 07:56:46;;;;;;;10.67;6.83;;;9.90;97.20;;;;;;5084145;28;20726;-63
2022/04/18 07:59:12;;;;;;;14.33;10.63;;;10.00;96.80;;;;;;5086288;28;20217;-63
2022/04/18 08:01:37;;;;;;;10.07;7.20;;;10.00;96.10;;;;;;5085692;28;20210;-63
2022/04/18 08:04:04;;;;;;;7.40;6.40;;;10.10;95.70;;;;;;5084160;28;20254;-63
2022/04/18 08:06:31;;;;;;;7.00;6.10;;;10.10;95.50;;;;;;5086177;28;20210;-63
2022/04/18 08:08:56;;;;;;;8.00;5.83;;;10.20;95.00;;;;;;5084624;28;20223;-63
2022/04/18 08:11:22;;;;;;;9.00;6.70;;;10.30;95.30;;;;;;5085976;28;20191;-63
2022/04/18 08:13:49;;;;;;;8.57;6.23;;;10.30;95.10;;;;;;5081718;28;20279;-63
2022/04/18 08:16:15;;;;;;;6.90;6.20;;;10.40;94.70;;;;;;5085330;28;20287;-63
2022/04/18 08:18:44;;;;;;;8.87;7.50;;;10.50;94.50;;;;;;5084117;28;20287;-63
2022/04/18 08:21:11;;;;;;;9.47;6.20;;;10.60;94.40;;;;;;5085406;28;20198;-63
2022/04/18 08:23:37;;;;;;;9.33;6.57;;;10.60;94.20;;;;;;5083678;28;20240;-63
2022/04/18 08:26:04;;;;;;;7.10;5.90;;;10.70;93.40;;;;;;5085112;28;20340;-63
2022/04/18 08:28:30;;;;;;;7.97;6.07;;;10.90;93.30;;;;;;5083433;28;20226;-63
2022/04/18 08:30:56;;;;;;;9.23;6.67;;;10.90;93.00;;;;;;5085051;28;20245;-62
2022/04/18 08:33:22;;;;;;;8.33;6.13;;;11.00;92.30;;;;;;5083498;28;20197;-63
2022/04/18 08:35:47;;;;;;;8.10;6.10;;;11.00;92.90;;;;;;5085155;28;20688;-63
2022/04/18 08:38:13;;;;;;;7.93;5.73;;;11.20;91.70;;;;;;5083588;28;20984;-63
2022/04/18 08:40:42;;;;;;;8.33;5.63;;;11.20;91.20;;;;;;5085213;28;20227;-63
2022/04/18 08:43:08;;;;;;;7.10;5.37;;;11.30;90.80;;;;;;5064708;28;20207;-63
2022/04/18 08:45:36;;;;;;;5.97;5.10;;;11.40;90.80;;;;;;5085120;28;20195;-63
2022/04/18 08:53:31;;;;;;;8.37;6.17;;;11.40;89.60;;;;;;5078562;28;20295;-62
2022/04/18 08:55:59;;;;;;;6.83;4.83;;;11.70;89.10;;;;;;5085201;28;20676;-62
2022/04/18 08:58:28;;;;;;;6.60;5.37;;;11.70;88.10;;;;;;5083161;28;20197;-63
2022/04/18 09:00:56;;;;;;;6.97;5.20;;;11.50;87.40;;;;;;5084824;28;20205;-63
2022/04/18 09:03:22;;;;;;;6.83;5.50;;;11.60;88.00;;;;;;5083130;28;20734;-62
2022/04/18 09:05:48;;;;;;;8.03;6.27;;;11.90;88.90;;;;;;5085095;28;20288;-62
2022/04/18 09:08:13;;;;;;;5.57;4.67;;;12.00;86.40;;;;;;5083358;28;20213;-64
2022/04/18 09:10:41;;;;;;;8.20;4.63;;;12.10;85.40;;;;;;5084757;28;20590;-64
2022/04/18 09:13:12;;;;;;;5.50;4.80;;;12.10;85.20;;;;;;5083038;28;20213;-64
2022/04/18 09:15:42;;;;;;;6.57;5.23;;;12.10;84.80;;;;;;5084680;28;20197;-62
2022/04/18 09:18:12;;;;;;;5.10;4.30;;;12.10;84.10;;;;;;5082736;28;20199;-63
2022/04/18 09:20:45;;;;;;;5.67;3.90;;;12.10;85.60;;;;;;5084855;28;20590;-69
2022/04/18 09:23:34;;;;;;;5.30;3.77;;;12.30;81.70;;;;;;5083497;28;20240;-61
2022/04/18 09:26:04;;;;;;;3.97;3.10;;;12.40;83.60;;;;;;5074337;28;20231;-61
2022/04/18 09:28:35;;;;;;;4.53;3.60;;;12.70;80.50;;;;;;5082990;28;20209;-61
2022/04/18 09:31:09;;;;;;;4.23;2.80;;;13.00;78.40;;;;;;5075088;28;20224;-61
2022/04/18 09:33:37;;;;;;;3.60;2.90;;;13.00;78.70;;;;;;5081853;28;20204;-62
2022/04/18 09:36:12;;;;;;;4.07;2.77;;;13.10;75.70;;;;;;5084511;28;20687;-62
2022/04/18 09:38:40;;;;;;;5.83;3.27;;;13.00;73.60;;;;;;5082713;28;20432;-62
2022/04/18 09:41:07;;;;;;;2.30;2.10;;;13.00;74.00;;;;;;5083648;28;20228;-62
2022/04/18 09:43:43;;;;;;;4.53;3.07;;;13.10;74.00;;;;;;5083199;28;20228;-61
2022/04/18 09:46:10;;;;;;;3.67;2.53;;;13.20;72.70;;;;;;5084628;28;20281;-62
2022/04/18 09:48:35;;;;;;;2.63;2.23;;;13.20;74.20;;;;;;5082485;28;20311;-62
2022/04/18 09:51:10;;;;;;;3.23;3.00;;;13.30;74.50;;;;;;5084586;28;20280;-62
2022/04/18 09:53:38;;;;;;;2.53;2.33;;;13.40;72.20;;;;;;5078687;28;20208;-62
2022/04/18 09:56:03;;;;;;;3.97;2.60;;;13.30;69.50;;;;;;5084566;28;20182;-62
2022/04/18 09:58:31;;;;;;;2.73;2.50;;;13.50;70.60;;;;;;5077814;28;20201;-62
2022/04/18 10:00:59;;;;;;;4.40;3.40;;;13.60;71.10;;;;;;5074334;28;20204;-62
2022/04/18 10:03:24;;;;;;;4.00;3.63;;;13.60;71.10;;;;;;5082631;28;20615;-62
2022/04/18 10:05:51;;;;;;;2.93;2.63;;;13.50;72.50;;;;;;5084463;28;20190;-61
2022/04/18 10:08:18;;;;;;;2.70;2.47;;;13.50;70.40;;;;;;5082663;28;20209;-62
2022/04/18 10:10:44;;;;;;;3.43;3.13;;;13.70;69.90;;;;;;5087963;28;20197;-61
2022/04/18 10:13:10;;;;;;;3.50;3.20;;;13.80;71.10;;;;;;5086506;28;20201;-62
2022/04/18 10:15:37;;;;;;;4.83;3.53;;;14.00;70.70;;;;;;5088176;28;20181;-62
2022/04/18 10:18:05;;;;;;;3.13;2.57;;;13.80;70.50;;;;;;5085882;28;20298;-61
2022/04/18 10:20:51;;;;;;;9.53;3.00;;;13.80;71.20;;;;;;5087839;28;20189;-61
2022/04/18 10:23:51;;;;;;;5.67;3.00;;;13.90;71.80;;;;;;5080781;28;20805;-61
2022/04/18 10:26:47;;;;;;;2.87;2.67;;;14.20;70.80;;;;;;5086161;28;20668;-61
2022/04/18 10:29:24;;;;;;;2.37;1.90;;;14.30;67.60;;;;;;5075680;28;20277;-61
2022/04/18 10:31:52;;;;;;;2.30;2.10;;;14.30;67.50;;;;;;5083268;28;20206;-61
2022/04/18 10:34:22;;;;;;;5.17;2.60;;;14.40;66.60;;;;;;5084598;28;20209;-61
2022/04/18 10:36:52;;;;;;;3.00;2.70;;;14.50;66.00;;;;;;5088028;28;20201;-61
2022/04/18 10:39:19;;;;;;;3.13;2.57;;;14.50;64.90;;;;;;5075740;28;20201;-61
2022/04/18 10:41:46;;;;;;;4.03;1.80;;;14.50;67.60;;;;;;5087826;28;20310;-62
2022/04/18 10:44:13;;;;;;;1.83;1.70;;;14.60;64.70;;;;;;5083741;28;20198;-61
2022/04/18 10:46:49;;;;;;;3.17;2.40;;;14.70;65.70;;;;;;5085745;28;20213;-62
2022/04/18 10:49:19;;;;;;;2.73;1.90;;;14.80;65.00;;;;;;5083654;28;20714;-62
2022/04/18 10:51:53;;;;;;;2.07;1.97;;;15.00;65.00;;;;;;5081018;28;20573;-61
2022/04/18 10:54:23;;;;;;;2.33;2.07;;;15.20;64.10;;;;;;5078109;28;20276;-63
2022/04/18 10:57:01;;;;;;;2.53;2.17;;;15.40;63.90;;;;;;5087566;28;20227;-63
2022/04/18 10:59:36;;;;;;;3.73;2.20;;;15.50;61.80;;;;;;5074952;28;20197;-61
2022/04/18 11:02:04;;;;;;;3.03;2.10;;;15.70;64.30;;;;;;5087594;28;20193;-61
2022/04/18 11:04:41;;;;;;;2.80;2.50;;;15.90;63.70;;;;;;5085304;28;20197;-61
2022/04/18 11:07:08;;;;;;;2.57;2.37;;;16.00;61.00;;;;;;5084231;28;20215;-62
2022/04/18 11:09:45;;;;;;;2.60;2.00;;;16.20;61.40;;;;;;5087237;28;20186;-62
2022/04/18 11:12:12;;;;;;;3.10;2.17;;;16.20;60.70;;;;;;5081458;28;20770;-63
2022/04/18 11:14:38;;;;;;;2.20;2.00;;;16.50;59.30;;;;;;5087043;28;20242;-62
2022/04/18 11:17:05;;;;;;;2.20;1.97;;;16.70;58.50;;;;;;5084914;28;20202;-61
2022/04/18 11:19:32;;;;;;;2.07;1.97;;;16.70;57.20;;;;;;5072838;28;20194;-60
2022/04/18 11:21:58;;;;;;;2.67;1.60;;;16.70;56.70;;;;;;5085058;28;20537;-61
2022/04/18 11:24:42;;;;;;;2.80;2.10;;;16.80;56.30;;;;;;5087120;28;20194;-61
2022/04/18 11:27:12;;;;;;;2.60;1.97;;;17.00;60.40;;;;;;5079649;28;20244;-67
2022/04/18 11:29:43;;;;;;;2.23;1.60;;;17.50;56.50;;;;;;5086352;28;20194;-68
2022/04/18 11:32:13;;;;;;;2.77;2.13;;;16.90;54.00;;;;;;5076765;28;20210;-70
2022/04/18 11:34:43;;;;;;;2.10;2.00;;;17.20;55.30;;;;;;5066236;28;20849;-70
2022/04/18 11:37:10;;;;;;;2.60;1.60;;;17.50;57.00;;;;;;5084543;28;20206;-70
2022/04/18 11:39:46;;;;;;;2.17;1.77;;;18.00;56.10;;;;;;5086626;28;20329;-69
2022/04/18 11:42:23;;;;;;;2.93;1.93;;;18.30;55.90;;;;;;5072559;28;20211;-69
2022/04/18 11:44:51;;;;;;;2.13;1.93;;;18.20;53.30;;;;;;5070190;28;20195;-70
2022/04/18 11:47:34;;;;;;;1.90;1.80;;;18.10;54.40;;;;;;5083975;28;20301;-69
2022/04/18 11:50:01;;;;;;;1.87;1.73;;;18.40;54.40;;;;;;5084668;28;20461;-69
2022/04/18 11:52:34;;;;;;;2.03;1.80;;;18.80;52.10;;;;;;5081375;28;20204;-69
2022/04/18 11:55:13;;;;;;;2.30;1.90;;;18.90;52.80;;;;;;5084630;28;20603;-70
2022/04/18 11:57:44;;;;;;;1.70;1.60;;;18.90;53.00;;;;;;5082716;28;20213;-69
2022/04/18 12:00:12;;;;;;;1.47;1.37;;;19.40;50.80;;;;;;5083259;28;20231;-73
2022/04/18 12:08:10;;;;;;;2.67;1.50;;;20.00;50.50;;;;;;5086286;28;20759;-74
2022/04/18 12:10:37;;;;;;;1.87;1.77;;;20.40;49.10;;;;;;5085778;28;20911;-73
2022/04/18 12:13:06;;;;;;;1.80;1.70;;;20.40;46.70;;;;;;5084192;28;20209;-72
2022/04/18 12:15:32;;;;;;;2.23;2.03;;;20.10;49.10;;;;;;5086014;28;20649;-72
2022/04/18 12:18:06;;;;;;;2.37;1.77;;;20.20;46.30;;;;;;5083749;28;20204;-72
2022/04/18 12:20:31;;;;;;;1.30;1.20;;;20.40;47.80;;;;;;5075652;28;20284;-72
2022/04/18 12:22:59;;;;;;;1.10;1.00;;;20.50;46.00;;;;;;5084043;28;20312;-78
2022/04/18 12:25:31;;;;;;;1.57;1.20;;;20.50;46.00;;;;;;5084963;28;20224;-75
2022/04/18 12:27:58;;;;;;;1.40;1.30;;;20.50;46.10;;;;;;5082408;28;20255;-72
2022/04/18 12:30:24;;;;;;;1.73;1.40;;;20.40;45.90;;;;;;5085577;28;20197;-74
2022/04/18 12:32:50;;;;;;;1.83;1.70;;;20.50;46.10;;;;;;5083435;28;20200;-74
2022/04/18 12:35:35;;;;;;;1.53;1.40;;;19.20;63.50;;;;;;5085802;28;20203;-74
2022/04/18 12:38:03;;;;;;;1.20;1.10;;;19.30;81.20;;;;;;5082859;28;20200;-76
2022/04/18 12:40:34;;;;;;;1.77;1.60;;;19.60;79.50;;;;;;5085313;28;20678;-75
2022/04/18 12:43:13;;;;;;;1.40;1.30;;;19.60;81.20;;;;;;5083224;28;20208;-71
2022/04/18 12:45:55;;;;;;;1.40;1.30;;;19.90;64.60;;;;;;5084941;28;20181;-71
2022/04/18 12:48:23;;;;;;;2.47;1.17;;;20.30;54.60;;;;;;5083145;28;20713;-79
2022/04/18 12:50:49;;;;;;;1.50;1.10;;;20.60;50.30;;;;;;5082933;28;20566;-73
2022/04/18 12:53:15;;;;;;;3.78;1.25;;;20.50;46.90;;;;;;5085221;28;20174;-77
2022/04/18 12:55:40;;;;;;;1.50;1.10;;;20.70;46.40;;;;;;5082485;28;20197;-76
2022/04/18 12:58:21;;;;;;;1.63;1.30;;;21.20;46.80;;;;;;5083121;28;20652;-74
2022/04/18 13:00:49;;;;;;;1.60;1.02;;;21.50;44.10;;;;;;5081945;28;20370;-74
2022/04/18 13:03:16;;;;;;;1.33;1.20;;;21.80;44.80;;;;;;5084284;28;20182;-74
2022/04/18 13:05:47;;;;;;;1.90;1.10;;;21.80;45.30;;;;;;5084523;28;20558;-72
2022/04/18 13:08:14;;;;;;;1.07;1.07;;;22.30;44.60;;;;;;5072391;28;20699;-75
2022/04/18 13:10:40;;;;;;;1.02;1.00;;;22.00;42.40;;;;;;5084826;28;20193;-76
2022/04/18 13:13:15;;;;;;;1.10;1.00;;;21.80;41.90;;;;;;5082923;28;20216;-72